createdAt,value
2022-10-13T00:03:48.535Z,7.26
2022-10-13T00:07:58.496Z,7.25
2022-10-13T00:12:00.520Z,7.23
2022-10-13T00:16:03.453Z,7.18
2022-10-13T00:20:06.611Z,7.08
2022-10-13T00:24:11.523Z,7.08
2022-10-13T00:28:15.644Z,7.10
2022-10-13T00:32:17.984Z,7.11
2022-10-13T00:36:22.067Z,7.10
2022-10-13T00:40:24.114Z,7.06
2022-10-13T00:44:54.294Z,7.08
2022-10-13T00:48:59.556Z,7.07
2022-10-13T00:53:01.942Z,6.95
2022-10-13T00:57:04.625Z,6.83
2022-10-13T01:01:07.128Z,6.76
2022-10-13T01:05:09.371Z,6.74
2022-10-13T01:09:11.473Z,6.76
2022-10-13T01:13:24.648Z,6.79
2022-10-13T01:17:38.887Z,6.85
2022-10-13T01:21:47.376Z,6.87
2022-10-13T01:26:22.645Z,6.74
2022-10-13T01:30:24.876Z,6.58
2022-10-13T01:34:34.461Z,6.38
2022-10-13T01:38:46.154Z,6.42
2022-10-13T01:42:59.244Z,6.44
2022-10-13T01:47:02.574Z,6.33
2022-10-13T01:51:07.087Z,6.25
2022-10-13T01:55:11.808Z,6.29
2022-10-13T01:59:14.757Z,6.41
2022-10-13T02:03:46.613Z,6.56
2022-10-13T02:07:56.444Z,6.73
2022-10-13T02:12:29.960Z,6.95
2022-10-13T02:16:40.991Z,7.01
2022-10-13T02:20:44.480Z,7.03
2022-10-13T02:24:46.703Z,7.01
2022-10-13T02:28:48.847Z,6.98
2022-10-13T02:32:51.203Z,6.93
2022-10-13T02:36:53.332Z,7.08
2022-10-13T02:40:55.408Z,7.20
2022-10-13T02:44:57.483Z,7.30
2022-10-13T02:48:59.562Z,7.41
2022-10-13T02:53:03.717Z,7.47
2022-10-13T02:57:05.729Z,7.57
2022-10-13T03:01:14.285Z,7.66
2022-10-13T03:05:17.072Z,7.69
2022-10-13T03:09:19.103Z,7.70
2022-10-13T03:13:21.158Z,7.54
2022-10-13T03:17:23.227Z,7.36
2022-10-13T03:21:25.631Z,7.33
2022-10-13T03:25:28.126Z,7.29
2022-10-13T03:29:30.223Z,7.37
2022-10-13T03:33:32.551Z,7.54
2022-10-13T03:37:34.536Z,7.67
2022-10-13T03:41:36.545Z,7.71
2022-10-13T03:45:38.653Z,7.81
2022-10-13T03:49:40.633Z,7.87
2022-10-13T03:53:42.713Z,7.96
2022-10-13T03:57:44.730Z,7.98
2022-10-13T04:01:46.824Z,7.97
2022-10-13T04:05:48.850Z,7.98
2022-10-13T04:09:52.120Z,7.96
2022-10-13T04:13:56.239Z,7.96
2022-10-13T04:17:58.280Z,7.95
2022-10-13T04:22:00.282Z,7.96
2022-10-13T04:26:02.481Z,7.98
2022-10-13T04:30:05.686Z,8.03
2022-10-13T04:34:08.450Z,8.09
2022-10-13T04:38:10.586Z,8.13
2022-10-13T04:42:12.634Z,8.16
2022-10-13T04:46:20.525Z,8.09
2022-10-13T04:50:23.908Z,8.07
2022-10-13T04:54:33.423Z,8.05
2022-10-13T04:58:36.196Z,8.05
2022-10-13T05:02:38.307Z,8.00
2022-10-13T05:07:05.316Z,7.99
2022-10-13T05:11:03.824Z,8.03
2022-10-13T05:15:06.399Z,8.05
2022-10-13T05:19:08.787Z,8.10
2022-10-13T05:23:10.794Z,8.10
2022-10-13T05:27:13.417Z,8.09
2022-10-13T05:31:18.610Z,8.00
2022-10-13T05:35:20.606Z,7.89
2022-10-13T05:39:22.692Z,7.93
2022-10-13T05:43:24.725Z,8.01
2022-10-13T05:47:28.309Z,8.14
2022-10-13T05:51:35.132Z,8.11
2022-10-13T05:55:38.306Z,8.09
2022-10-13T05:59:45.403Z,8.17
2022-10-13T06:03:49.640Z,8.24
2022-10-13T06:07:51.921Z,8.25
2022-10-13T06:11:53.903Z,8.22
2022-10-13T06:15:57.506Z,8.27
2022-10-13T06:20:00.052Z,8.41
2022-10-13T06:24:02.488Z,8.50
2022-10-13T06:28:04.563Z,8.57
2022-10-13T06:32:07.134Z,8.72
2022-10-13T06:36:09.644Z,8.89
2022-10-13T06:40:11.941Z,9.15
2022-10-13T06:44:14.062Z,9.38
2022-10-13T06:48:16.043Z,9.48
2022-10-13T06:52:18.306Z,9.46
2022-10-13T06:56:20.464Z,9.58
2022-10-13T07:00:22.617Z,9.68
2022-10-13T07:04:25.860Z,9.75
2022-10-13T07:08:31.116Z,9.84
2022-10-13T07:12:33.146Z,9.92
2022-10-13T07:16:35.133Z,10.01
2022-10-13T07:20:37.936Z,10.11
2022-10-13T07:24:39.935Z,10.34
2022-10-13T07:28:43.402Z,10.53
2022-10-13T07:32:45.506Z,10.87
2022-10-13T07:36:47.574Z,11.17
2022-10-13T07:40:49.658Z,11.40
2022-10-13T07:44:51.677Z,11.62
2022-10-13T07:48:54.380Z,11.71
2022-10-13T07:52:56.400Z,11.69
2022-10-13T07:56:58.415Z,11.68
2022-10-13T08:01:01.975Z,11.79
2022-10-13T08:05:05.664Z,11.95
2022-10-13T08:09:07.804Z,12.12
2022-10-13T08:13:11.202Z,12.19
2022-10-13T08:17:13.201Z,12.20
2022-10-13T08:25:43.772Z,12.24
2022-10-13T08:29:45.970Z,12.30
2022-10-13T08:33:48.132Z,12.44
2022-10-13T08:37:50.449Z,12.67
2022-10-13T08:41:54.180Z,12.95
2022-10-13T08:45:59.558Z,13.20
2022-10-13T08:50:13.634Z,13.54
2022-10-13T08:54:19.257Z,13.77
2022-10-13T08:58:25.759Z,13.94
2022-10-13T09:02:31.485Z,14.02
2022-10-13T09:06:37.905Z,14.03
2022-10-13T09:10:49.364Z,13.92
2022-10-13T09:15:01.280Z,13.89
2022-10-13T09:19:15.052Z,13.89
2022-10-13T09:23:20.234Z,13.91
2022-10-13T09:27:22.213Z,14.01
2022-10-13T09:31:30.196Z,14.10
2022-10-13T09:35:34.424Z,14.18
2022-10-13T09:39:37.161Z,14.33
2022-10-13T09:43:43.578Z,14.37
2022-10-13T09:48:02.813Z,14.32
2022-10-13T09:52:13.887Z,14.27
2022-10-13T09:56:34.549Z,14.19
2022-10-13T10:00:37.334Z,14.09
2022-10-13T10:04:43.181Z,14.05
2022-10-13T10:09:13.244Z,13.99
2022-10-13T10:13:15.874Z,13.94
2022-10-13T10:17:29.097Z,13.97
2022-10-13T10:21:44.118Z,14.10
2022-10-13T10:25:54.046Z,14.37
2022-10-13T10:30:03.832Z,14.80
2022-10-13T10:34:26.193Z,15.18
2022-10-13T10:38:52.802Z,15.46
2022-10-13T10:43:06.902Z,15.72
2022-10-13T10:47:32.816Z,15.74
2022-10-13T10:51:37.814Z,15.71
2022-10-13T10:55:51.426Z,15.79
2022-10-13T11:00:09.969Z,15.93
2022-10-13T11:04:33.084Z,15.97
2022-10-13T11:08:38.494Z,16.00
2022-10-13T11:12:50.633Z,16.12
2022-10-13T11:17:02.413Z,16.33
2022-10-13T11:21:04.551Z,16.54
2022-10-13T11:25:36.620Z,16.81
2022-10-13T11:29:57.736Z,16.88
2022-10-13T11:34:01.715Z,16.89
2022-10-13T11:38:18.127Z,16.87
2022-10-13T11:42:35.746Z,16.85
2022-10-13T11:47:27.587Z,16.83
2022-10-13T11:51:38.400Z,16.82
2022-10-13T11:55:53.676Z,16.86
2022-10-13T11:59:56.893Z,16.88
2022-10-13T12:04:14.408Z,16.88
2022-10-13T12:08:18.634Z,16.87
2022-10-13T12:12:23.043Z,16.95
2022-10-13T12:16:26.486Z,16.98
2022-10-13T12:20:31.737Z,16.89
2022-10-13T12:24:33.764Z,16.89
2022-10-13T12:28:54.072Z,16.90
2022-10-13T12:32:58.830Z,17.02
2022-10-13T12:37:03.769Z,17.20
2022-10-13T12:41:06.123Z,17.32
2022-10-13T12:45:16.092Z,17.43
2022-10-13T12:49:27.364Z,17.45
2022-10-13T12:53:29.481Z,17.40
2022-10-13T12:57:38.235Z,17.27
2022-10-13T13:01:40.349Z,17.06
2022-10-13T13:05:49.243Z,16.93
2022-10-13T13:10:09.187Z,16.79
2022-10-13T13:14:33.460Z,16.71
2022-10-13T13:18:41.762Z,16.65
2022-10-13T13:22:43.817Z,16.65
2022-10-13T13:26:46.241Z,16.77
2022-10-13T13:30:48.273Z,16.92
2022-10-13T13:34:50.869Z,17.04
2022-10-13T13:38:54.377Z,17.11
2022-10-13T13:42:56.537Z,17.17
2022-10-13T13:47:03.181Z,17.20
2022-10-13T13:51:05.537Z,17.13
2022-10-13T13:55:08.353Z,17.10
2022-10-13T13:59:10.361Z,17.10
2022-10-13T14:03:15.858Z,17.05
2022-10-13T14:07:21.592Z,17.01
2022-10-13T14:11:26.416Z,16.92
2022-10-13T14:15:29.881Z,16.79
2022-10-13T14:19:32.968Z,16.67
2022-10-13T14:23:35.600Z,16.54
2022-10-13T14:27:37.794Z,16.43
2022-10-13T14:31:43.056Z,16.31
2022-10-13T14:35:45.840Z,16.25
2022-10-13T14:39:51.081Z,16.39
2022-10-13T14:43:56.904Z,16.59
2022-10-13T14:47:58.943Z,16.71
2022-10-13T14:52:01.108Z,16.63
2022-10-13T14:56:03.889Z,16.54
2022-10-13T15:00:06.640Z,16.38
2022-10-13T15:04:09.017Z,16.25
2022-10-13T15:08:13.342Z,16.15
2022-10-13T15:12:15.352Z,15.99
2022-10-13T15:16:26.194Z,15.89
2022-10-13T15:20:29.147Z,15.81
2022-10-13T15:24:31.153Z,15.78
2022-10-13T15:28:39.689Z,15.77
2022-10-13T15:32:45.132Z,15.77
2022-10-13T15:36:47.130Z,15.72
2022-10-13T15:40:50.456Z,15.68
2022-10-13T15:49:14.492Z,15.58
2022-10-13T15:53:16.600Z,15.55
2022-10-13T15:57:18.616Z,15.54
2022-10-13T16:01:20.763Z,15.43
2022-10-13T16:05:22.875Z,15.36
2022-10-13T16:09:24.893Z,15.29
2022-10-13T16:13:26.952Z,15.23
2022-10-13T16:17:28.998Z,15.09
2022-10-13T16:21:31.032Z,14.97
2022-10-13T16:25:33.043Z,14.84
2022-10-13T16:29:35.132Z,14.75
2022-10-13T16:33:37.234Z,14.68
2022-10-13T16:37:39.287Z,14.57
2022-10-13T16:41:41.447Z,14.48
2022-10-13T16:45:59.055Z,14.41
2022-10-13T16:50:06.148Z,14.34
2022-10-13T16:54:08.900Z,14.30
2022-10-13T16:58:11.147Z,14.27
2022-10-13T17:02:14.773Z,14.25
2022-10-13T17:06:18.441Z,14.25
2022-10-13T17:10:20.545Z,14.25
2022-10-13T17:14:22.562Z,14.29
2022-10-13T17:18:26.061Z,14.27
2022-10-13T17:22:28.076Z,14.24
2022-10-13T17:26:30.110Z,14.21
2022-10-13T17:30:32.089Z,14.22
2022-10-13T17:34:36.303Z,14.23
2022-10-13T17:38:38.651Z,14.23
2022-10-13T17:42:40.701Z,14.18
2022-10-13T17:46:42.734Z,14.19
2022-10-13T17:50:44.773Z,14.20
2022-10-13T17:54:46.789Z,14.16
2022-10-13T17:58:50.105Z,14.14
2022-10-13T18:02:52.902Z,14.12
2022-10-13T18:06:54.886Z,14.15
2022-10-13T18:11:08.660Z,14.17
2022-10-13T18:15:10.838Z,14.14
2022-10-13T18:19:13.284Z,14.13
2022-10-13T18:23:15.426Z,14.11
2022-10-13T18:27:17.499Z,14.07
2022-10-13T18:31:21.024Z,14.05
2022-10-13T18:35:28.727Z,14.01
2022-10-13T18:39:34.996Z,14.03
2022-10-13T18:43:37.103Z,14.10
2022-10-13T18:47:39.205Z,14.29
2022-10-13T18:51:41.922Z,14.48
2022-10-13T18:55:44.356Z,14.62
2022-10-13T18:59:46.374Z,14.63
2022-10-13T19:03:50.563Z,14.48
2022-10-13T19:07:52.592Z,14.36
2022-10-13T19:11:57.627Z,14.27
2022-10-13T19:16:02.997Z,14.21
2022-10-13T19:20:05.598Z,14.17
2022-10-13T19:24:08.216Z,14.17
2022-10-13T19:28:11.082Z,14.19
2022-10-13T19:32:13.083Z,14.18
2022-10-13T19:36:30.165Z,14.16
2022-10-13T19:40:40.053Z,14.13
2022-10-13T19:44:44.206Z,14.15
2022-10-13T19:48:46.444Z,14.17
2022-10-13T19:52:48.486Z,14.19
2022-10-13T19:56:51.204Z,14.23
2022-10-13T20:00:53.236Z,14.23
2022-10-13T20:04:55.280Z,14.22
2022-10-13T20:08:58.605Z,14.23
2022-10-13T20:13:00.599Z,14.22
2022-10-13T20:17:02.839Z,14.27
2022-10-13T20:21:07.114Z,14.30
2022-10-13T20:25:09.545Z,14.28
2022-10-13T20:29:11.692Z,14.26
2022-10-13T20:33:13.866Z,14.24
2022-10-13T20:37:15.963Z,14.23
2022-10-13T20:41:21.259Z,14.23
2022-10-13T20:45:23.320Z,14.20
2022-10-13T20:49:25.326Z,14.19
2022-10-13T20:53:27.806Z,14.24
2022-10-13T20:57:29.825Z,14.23
2022-10-13T21:01:32.620Z,14.17
2022-10-13T21:05:34.614Z,14.15
2022-10-13T21:09:36.787Z,14.18
2022-10-13T21:13:39.918Z,14.22
2022-10-13T21:17:42.594Z,14.24
2022-10-13T21:21:44.657Z,14.27
2022-10-13T21:25:46.671Z,14.23
2022-10-13T21:29:48.678Z,14.28
2022-10-13T21:33:51.363Z,14.27
2022-10-13T21:37:53.411Z,14.29
2022-10-13T21:41:55.456Z,14.31
2022-10-13T21:46:23.195Z,14.32
2022-10-13T21:50:28.145Z,14.32
2022-10-13T21:54:30.132Z,14.32
2022-10-13T21:58:32.252Z,14.35
2022-10-13T22:02:34.266Z,14.33
2022-10-13T22:06:36.315Z,14.29
2022-10-13T22:10:38.317Z,14.28
2022-10-13T22:14:40.377Z,14.27
2022-10-13T22:18:42.670Z,14.23
2022-10-13T22:22:44.644Z,14.23
2022-10-13T22:26:48.655Z,14.22
2022-10-13T22:30:52.334Z,14.22
2022-10-13T22:34:54.340Z,14.20
2022-10-13T22:38:58.777Z,14.22
2022-10-13T22:43:00.763Z,14.24
2022-10-13T22:47:03.012Z,14.23
2022-10-13T22:51:06.502Z,14.23
2022-10-13T22:55:09.117Z,14.20
2022-10-13T22:59:12.945Z,14.20
2022-10-13T23:03:15.240Z,14.22
2022-10-13T23:07:22.058Z,14.19
2022-10-13T23:11:24.348Z,14.19
2022-10-13T23:15:26.433Z,14.16
2022-10-13T23:19:28.599Z,14.12
2022-10-13T23:23:30.887Z,14.08
2022-10-13T23:27:32.898Z,14.04
2022-10-13T23:31:35.001Z,14.01
2022-10-13T23:35:36.994Z,13.98
2022-10-13T23:39:38.976Z,13.99
2022-10-13T23:43:41.627Z,13.98
2022-10-13T23:47:43.625Z,13.99
2022-10-13T23:51:45.740Z,14.01
2022-10-13T23:55:47.862Z,13.99
2022-10-13T23:59:49.860Z,13.97
